Time;durP1;ratioP1;P1;durP2;ratioP2;P2;SDS_P1;SDS_P2;PMS_P1;PMS_P2;Temp;Humidity;BMP_temperature;BMP_pressure;BME280_temperature;BME280_humidity;BME280_pressure;Samples;Min_cycle;Max_cycle;Signal;HPM_P1;HPM_P2
2023/11/26 00:01:42;;;;;;;2.40;1.80;;;4.30;99.90;;;;;;5035291;28;20224;-75
2023/11/26 00:04:08;;;;;;;2.33;1.77;;;4.30;99.90;;;;;;5007357;28;20212;-74
2023/11/26 00:06:34;;;;;;;2.30;2.10;;;4.30;99.90;;;;;;5021585;28;20216;-74
2023/11/26 00:09:03;;;;;;;3.63;2.87;;;4.30;99.90;;;;;;5043446;28;20294;-75
2023/11/26 00:11:28;;;;;;;9.40;3.13;;;4.30;99.90;;;;;;5024025;28;20972;-74
2023/11/26 00:13:54;;;;;;;4.53;2.70;;;4.30;99.90;;;;;;5022325;28;20551;-74
2023/11/26 00:16:20;;;;;;;4.63;2.33;;;4.20;99.90;;;;;;5048638;28;20687;-75
2023/11/26 00:18:46;;;;;;;2.03;1.80;;;4.30;99.90;;;;;;5021400;28;20201;-74
2023/11/26 00:21:12;;;;;;;3.60;2.30;;;4.20;99.90;;;;;;5052768;28;20209;-74
2023/11/26 00:23:38;;;;;;;2.80;1.73;;;4.20;99.90;;;;;;5040004;28;20466;-74
2023/11/26 00:26:04;;;;;;;3.60;2.33;;;4.20;99.90;;;;;;5029661;28;20457;-74
2023/11/26 00:28:29;;;;;;;3.40;2.00;;;4.20;99.90;;;;;;5030450;28;20235;-74
2023/11/26 00:30:55;;;;;;;2.90;2.00;;;4.20;99.90;;;;;;5042716;28;20238;-74
2023/11/26 00:33:21;;;;;;;1.60;1.50;;;4.20;99.90;;;;;;5045409;28;20220;-74
2023/11/26 00:35:47;;;;;;;2.47;1.83;;;4.20;99.90;;;;;;5037602;28;20224;-74
2023/11/26 00:38:12;;;;;;;2.13;1.90;;;4.20;99.90;;;;;;5030337;28;20470;-74
2023/11/26 00:40:39;;;;;;;2.00;1.87;;;4.20;99.90;;;;;;5027175;28;20249;-75
2023/11/26 00:43:04;;;;;;;2.93;1.60;;;4.20;99.90;;;;;;5048254;28;20208;-74
2023/11/26 00:45:30;;;;;;;2.00;1.80;;;4.10;99.90;;;;;;5046218;28;20879;-74
2023/11/26 00:47:57;;;;;;;4.93;2.17;;;4.10;99.90;;;;;;5059189;28;20458;-74
2023/11/26 00:50:23;;;;;;;2.23;2.03;;;4.10;99.90;;;;;;5035774;28;20239;-74
2023/11/26 00:52:49;;;;;;;3.10;2.20;;;4.10;99.90;;;;;;5059263;28;20458;-74
2023/11/26 00:55:15;;;;;;;3.07;2.43;;;4.10;99.90;;;;;;5044031;28;20466;-74
2023/11/26 00:57:41;;;;;;;4.27;2.70;;;4.00;99.90;;;;;;5027853;28;20237;-74
2023/11/26 01:00:10;;;;;;;2.50;1.80;;;3.90;99.90;;;;;;5031947;28;20215;-74
2023/11/26 01:02:36;;;;;;;1.77;1.60;;;3.90;99.90;;;;;;5025065;28;20477;-74
2023/11/26 01:05:03;;;;;;;2.77;1.90;;;4.00;99.90;;;;;;5041671;28;20966;-74
2023/11/26 01:07:30;;;;;;;4.07;2.50;;;4.00;99.90;;;;;;5040282;28;20207;-74
2023/11/26 01:09:59;;;;;;;3.17;2.40;;;4.00;99.90;;;;;;5062393;28;20453;-74
2023/11/26 01:12:25;;;;;;;6.63;2.03;;;4.00;99.90;;;;;;5018215;28;20459;-74
2023/11/26 01:14:51;;;;;;;3.20;2.67;;;4.10;99.90;;;;;;5035445;28;20509;-74
2023/11/26 01:17:17;;;;;;;6.43;2.97;;;4.10;99.90;;;;;;5026499;28;20716;-75
2023/11/26 01:19:43;;;;;;;3.50;2.80;;;4.10;99.90;;;;;;5059715;28;20543;-74
2023/11/26 01:22:09;;;;;;;6.30;3.10;;;4.20;99.90;;;;;;5027446;28;20216;-74
2023/11/26 01:24:34;;;;;;;5.00;3.93;;;4.20;99.90;;;;;;5062740;28;20208;-74
2023/11/26 01:27:01;;;;;;;5.63;4.47;;;4.20;99.90;;;;;;5064566;28;20290;-74
2023/11/26 01:29:26;;;;;;;6.57;4.33;;;4.20;99.90;;;;;;5029683;28;20745;-74
2023/11/26 01:31:53;;;;;;;5.33;4.70;;;4.20;99.90;;;;;;5040694;28;20558;-74
2023/11/26 01:34:19;;;;;;;7.83;6.20;;;4.30;99.90;;;;;;5044186;28;20247;-74
2023/11/26 01:36:45;;;;;;;14.87;6.83;;;4.20;99.90;;;;;;5042181;28;20591;-74
2023/11/26 01:39:11;;;;;;;12.10;7.53;;;4.20;99.90;;;;;;5041709;28;20269;-74
2023/11/26 01:41:37;;;;;;;11.03;7.70;;;4.10;99.90;;;;;;5027065;28;20458;-74
2023/11/26 01:44:03;;;;;;;13.27;7.97;;;4.10;99.90;;;;;;5026718;28;20222;-74
2023/11/26 01:46:29;;;;;;;12.40;9.57;;;4.20;99.90;;;;;;5017101;28;20212;-74
2023/11/26 01:48:56;;;;;;;10.90;8.17;;;4.20;99.90;;;;;;5031890;28;20219;-74
2023/11/26 01:51:24;;;;;;;11.83;9.10;;;4.20;99.90;;;;;;5032036;28;20470;-74
2023/11/26 01:53:52;;;;;;;11.70;7.80;;;4.20;99.90;;;;;;5024506;28;20473;-74
2023/11/26 01:56:19;;;;;;;12.23;8.30;;;4.20;99.90;;;;;;5045234;28;20504;-74
2023/11/26 01:58:45;;;;;;;9.57;7.40;;;4.20;99.90;;;;;;5023775;28;20553;-74
2023/11/26 02:01:14;;;;;;;5.30;4.50;;;4.10;99.90;;;;;;5025945;28;20487;-75
2023/11/26 02:03:40;;;;;;;5.67;3.60;;;4.10;99.90;;;;;;5040441;28;20454;-74
2023/11/26 02:06:06;;;;;;;6.63;3.93;;;4.00;99.90;;;;;;5043162;28;20454;-74
2023/11/26 02:08:32;;;;;;;3.97;2.83;;;4.00;99.90;;;;;;5044154;28;20271;-75
2023/11/26 02:10:59;;;;;;;4.20;2.60;;;4.00;99.90;;;;;;5037616;28;20463;-74
2023/11/26 02:13:25;;;;;;;3.43;2.90;;;4.00;99.90;;;;;;5027859;28;20903;-74
2023/11/26 02:15:51;;;;;;;6.63;2.50;;;4.10;99.90;;;;;;5025801;28;21041;-75
2023/11/26 02:18:19;;;;;;;4.63;2.80;;;4.10;99.90;;;;;;5015909;28;20827;-74
2023/11/26 02:20:45;;;;;;;3.60;2.60;;;4.10;99.90;;;;;;5031809;28;20447;-74
2023/11/26 02:23:12;;;;;;;3.27;2.43;;;4.10;99.90;;;;;;5014212;28;21011;-74
2023/11/26 02:25:38;;;;;;;3.43;2.20;;;4.20;99.90;;;;;;5028760;28;20542;-74
2023/11/26 02:28:05;;;;;;;3.23;2.70;;;4.20;99.90;;;;;;5043970;28;20545;-74
2023/11/26 02:30:32;;;;;;;2.80;2.00;;;4.30;99.90;;;;;;5044232;28;20240;-74
2023/11/26 02:32:58;;;;;;;3.33;2.47;;;4.30;99.90;;;;;;5031936;28;20471;-74
2023/11/26 02:35:25;;;;;;;3.13;2.57;;;4.30;99.90;;;;;;5019941;28;20480;-75
2023/11/26 02:37:52;;;;;;;4.83;3.30;;;4.30;99.90;;;;;;5026428;28;20979;-74
2023/11/26 02:40:19;;;;;;;4.00;3.00;;;4.30;99.90;;;;;;5028494;28;20454;-74
2023/11/26 02:42:45;;;;;;;4.53;2.83;;;4.30;99.90;;;;;;5059612;28;20454;-74
2023/11/26 02:45:12;;;;;;;6.23;3.40;;;4.30;99.90;;;;;;5017506;28;20821;-74
2023/11/26 02:47:38;;;;;;;3.47;2.20;;;4.30;99.90;;;;;;5025131;28;20455;-74
2023/11/26 02:50:05;;;;;;;4.47;2.27;;;4.30;99.90;;;;;;5035991;28;20549;-74
2023/11/26 02:52:33;;;;;;;2.73;2.50;;;4.30;99.90;;;;;;5036093;28;20458;-74
2023/11/26 02:54:59;;;;;;;2.30;2.07;;;4.30;99.90;;;;;;5060433;28;20443;-74
2023/11/26 02:57:25;;;;;;;7.07;2.63;;;4.20;99.90;;;;;;5027064;28;20810;-74
2023/11/26 02:59:52;;;;;;;4.40;2.73;;;4.20;99.90;;;;;;5037565;28;20218;-74
2023/11/26 03:02:19;;;;;;;3.23;2.40;;;4.10;99.90;;;;;;5039692;28;20442;-74
2023/11/26 03:04:52;;;;;;;2.70;2.07;;;4.10;99.90;;;;;;5054735;28;20203;-74
2023/11/26 03:07:21;;;;;;;5.03;2.83;;;4.00;99.90;;;;;;5043529;28;20454;-74
2023/11/26 03:15:18;;;;;;;5.90;2.67;;;4.20;99.90;;;;;;5044101;28;20443;-74
2023/11/26 03:17:44;;;;;;;5.43;2.90;;;4.30;99.90;;;;;;5021450;28;20473;-74
2023/11/26 03:20:10;;;;;;;3.43;2.40;;;4.30;99.90;;;;;;5031368;28;20797;-74
2023/11/26 03:22:36;;;;;;;2.93;2.30;;;4.30;99.90;;;;;;5040454;28;20216;-74
2023/11/26 03:25:05;;;;;;;2.67;2.37;;;4.30;99.90;;;;;;5045190;28;20450;-74
2023/11/26 03:27:33;;;;;;;3.53;2.10;;;4.30;99.90;;;;;;5025186;28;20485;-74
2023/11/26 03:30:00;;;;;;;2.57;2.30;;;4.40;99.90;;;;;;5023436;28;20445;-74
2023/11/26 03:32:27;;;;;;;3.47;1.93;;;4.30;99.90;;;;;;5039314;28;20541;-74
2023/11/26 03:34:52;;;;;;;4.00;2.63;;;4.40;99.90;;;;;;5054651;28;20451;-74
2023/11/26 03:37:18;;;;;;;3.03;2.00;;;4.20;99.90;;;;;;5044333;28;20477;-74
2023/11/26 03:39:45;;;;;;;3.27;1.70;;;4.20;99.90;;;;;;5042252;28;20290;-74
2023/11/26 03:42:14;;;;;;;1.90;1.57;;;4.30;99.90;;;;;;5058123;28;20238;-74
2023/11/26 03:44:40;;;;;;;2.90;2.20;;;4.30;99.90;;;;;;5021196;28;20450;-74
2023/11/26 03:47:08;;;;;;;1.90;1.47;;;4.40;99.90;;;;;;5057391;28;20466;-74
2023/11/26 03:49:34;;;;;;;2.20;1.87;;;4.40;99.90;;;;;;5035868;28;20449;-74
2023/11/26 03:52:00;;;;;;;1.70;1.40;;;4.40;99.90;;;;;;5058756;28;20473;-74
2023/11/26 03:54:25;;;;;;;3.33;2.20;;;4.40;99.90;;;;;;5041543;28;20522;-74
2023/11/26 03:56:51;;;;;;;4.20;1.80;;;4.40;99.90;;;;;;5039876;28;20458;-74
2023/11/26 03:59:17;;;;;;;4.50;1.90;;;4.40;99.90;;;;;;5061638;28;20250;-74
2023/11/26 04:01:43;;;;;;;5.93;2.13;;;4.40;99.90;;;;;;5040602;28;20224;-74
2023/11/26 04:04:09;;;;;;;3.03;2.20;;;4.40;99.90;;;;;;5028181;28;20223;-74
2023/11/26 04:06:37;;;;;;;2.27;2.07;;;4.40;99.90;;;;;;5041652;28;20537;-74
2023/11/26 04:09:03;;;;;;;2.50;2.30;;;4.50;99.90;;;;;;5041326;28;20286;-74
2023/11/26 04:11:29;;;;;;;2.90;2.20;;;4.40;99.90;;;;;;5026074;28;20462;-74
2023/11/26 04:13:54;;;;;;;2.90;2.17;;;4.40;99.90;;;;;;5024774;28;20241;-74
2023/11/26 04:16:20;;;;;;;1.70;1.60;;;4.40;99.90;;;;;;5043384;28;20466;-74
2023/11/26 04:18:46;;;;;;;3.03;2.03;;;4.50;99.90;;;;;;5039849;28;20307;-74
2023/11/26 04:21:12;;;;;;;3.03;1.97;;;4.50;99.90;;;;;;5055758;28;20265;-74
2023/11/26 04:23:38;;;;;;;4.20;2.23;;;4.50;99.90;;;;;;5053713;28;20455;-75
2023/11/26 04:26:06;;;;;;;3.13;2.83;;;4.50;99.90;;;;;;5042466;28;20478;-74
2023/11/26 04:28:32;;;;;;;5.00;2.70;;;4.50;99.90;;;;;;5032055;28;20545;-74
2023/11/26 04:30:58;;;;;;;4.13;2.67;;;4.50;99.90;;;;;;5040740;28;20566;-75
2023/11/26 04:33:23;;;;;;;4.70;2.20;;;4.50;99.90;;;;;;5063569;28;20801;-74
2023/11/26 04:35:49;;;;;;;3.47;2.40;;;4.50;99.90;;;;;;5035223;28;20744;-74
2023/11/26 04:38:15;;;;;;;5.37;2.90;;;4.50;99.90;;;;;;5045230;28;20243;-74
2023/11/26 04:40:41;;;;;;;8.67;2.90;;;4.50;99.90;;;;;;5033255;28;20234;-74
2023/11/26 04:43:07;;;;;;;2.10;1.97;;;4.50;99.90;;;;;;5030931;28;20512;-73
2023/11/26 04:45:33;;;;;;;3.33;2.40;;;4.50;99.90;;;;;;5029317;28;20293;-74
2023/11/26 04:47:58;;;;;;;3.73;2.10;;;4.50;99.90;;;;;;5040926;28;20215;-74
2023/11/26 04:50:25;;;;;;;2.73;2.20;;;4.40;99.90;;;;;;5046784;28;20216;-74
2023/11/26 04:52:53;;;;;;;3.07;2.30;;;4.50;99.90;;;;;;5043425;28;20688;-74
2023/11/26 04:55:19;;;;;;;2.10;1.87;;;4.50;99.90;;;;;;5059636;28;20836;-74
2023/11/26 04:57:47;;;;;;;2.70;2.20;;;4.50;99.90;;;;;;5027384;28;20450;-74
2023/11/26 05:00:15;;;;;;;2.43;1.80;;;4.50;99.90;;;;;;5029263;28;20528;-75
2023/11/26 05:02:41;;;;;;;2.50;2.10;;;4.50;99.90;;;;;;5043270;28;20462;-74
2023/11/26 05:05:08;;;;;;;2.43;2.13;;;4.50;99.90;;;;;;5045214;28;20470;-74
2023/11/26 05:07:37;;;;;;;5.10;2.10;;;4.50;99.90;;;;;;5028393;28;20461;-74
2023/11/26 05:10:06;;;;;;;6.67;2.20;;;4.50;99.90;;;;;;5060930;28;20450;-74
2023/11/26 05:12:32;;;;;;;2.30;1.60;;;4.40;99.90;;;;;;5060054;28;20505;-74
2023/11/26 05:14:58;;;;;;;2.40;1.13;;;4.20;99.90;;;;;;5061030;28;20450;-74
2023/11/26 05:17:24;;;;;;;5.53;1.60;;;4.00;99.90;;;;;;5028285;28;20451;-74
2023/11/26 05:19:49;;;;;;;3.80;2.13;;;4.00;99.90;;;;;;5043137;28;20208;-74
2023/11/26 05:22:15;;;;;;;1.30;1.20;;;4.10;99.90;;;;;;5064451;28;20219;-73
2023/11/26 05:24:41;;;;;;;3.27;1.90;;;4.20;99.90;;;;;;5041584;28;20218;-75
2023/11/26 05:27:07;;;;;;;2.73;2.10;;;4.20;99.90;;;;;;5029233;28;20298;-74
2023/11/26 05:29:33;;;;;;;7.23;2.00;;;4.20;99.90;;;;;;5046403;28;20540;-74
2023/11/26 05:31:59;;;;;;;3.17;2.00;;;4.20;99.90;;;;;;5042786;28;20232;-74
2023/11/26 05:34:24;;;;;;;3.87;1.50;;;4.10;99.90;;;;;;5049630;28;20216;-74
2023/11/26 05:36:50;;;;;;;2.50;1.50;;;4.10;99.90;;;;;;5058404;28;20485;-74
2023/11/26 05:39:16;;;;;;;1.33;1.23;;;4.10;99.90;;;;;;5025341;28;20204;-73
2023/11/26 05:41:41;;;;;;;2.47;1.50;;;4.10;99.90;;;;;;5060662;28;20203;-74
2023/11/26 05:44:08;;;;;;;1.87;1.60;;;4.10;99.90;;;;;;5058241;28;20989;-74
2023/11/26 05:46:34;;;;;;;2.37;1.63;;;4.20;99.90;;;;;;5041176;28;20693;-74
2023/11/26 05:49:00;;;;;;;4.17;2.37;;;4.10;99.90;;;;;;5038205;28;20517;-74
2023/11/26 05:51:27;;;;;;;1.80;1.10;;;4.10;99.90;;;;;;5045407;28;20220;-74
2023/11/26 05:53:53;;;;;;;2.73;1.07;;;3.70;99.90;;;;;;5042188;28;20517;-74
2023/11/26 05:56:19;;;;;;;0.70;0.67;;;3.50;99.90;;;;;;5044855;28;20478;-74
2023/11/26 05:58:45;;;;;;;1.03;0.90;;;3.60;99.90;;;;;;5023554;28;20487;-74
2023/11/26 06:01:11;;;;;;;1.53;1.13;;;3.80;99.90;;;;;;5050968;28;20223;-74
2023/11/26 06:03:37;;;;;;;0.73;0.63;;;3.90;99.90;;;;;;5061775;28;20216;-74
2023/11/26 06:06:03;;;;;;;1.00;0.80;;;4.00;99.90;;;;;;5046161;28;20542;-74
2023/11/26 06:08:29;;;;;;;0.70;0.63;;;4.00;99.90;;;;;;5022583;28;20490;-74
2023/11/26 06:10:55;;;;;;;0.80;0.80;;;4.10;99.90;;;;;;5041731;28;20481;-74
2023/11/26 06:13:21;;;;;;;1.20;1.10;;;4.10;99.90;;;;;;5034168;28;20225;-74
2023/11/26 06:15:46;;;;;;;1.40;1.10;;;4.20;99.90;;;;;;5048568;28;20466;-74
2023/11/26 06:18:12;;;;;;;1.23;1.13;;;4.20;99.90;;;;;;5050566;28;20218;-74
2023/11/26 06:20:38;;;;;;;3.83;1.20;;;4.20;99.90;;;;;;5037865;28;20211;-75
2023/11/26 06:23:03;;;;;;;1.30;1.20;;;4.20;99.90;;;;;;5031656;28;20705;-74
2023/11/26 06:25:29;;;;;;;3.20;1.10;;;4.20;99.90;;;;;;5049357;28;20603;-74
2023/11/26 06:27:55;;;;;;;1.10;1.00;;;4.00;99.90;;;;;;5043217;28;20405;-74
2023/11/26 06:30:21;;;;;;;2.10;1.27;;;3.90;99.90;;;;;;5043697;28;20706;-74
2023/11/26 06:32:47;;;;;;;2.13;0.70;;;3.80;99.90;;;;;;5067191;28;20439;-75
2023/11/26 06:35:12;;;;;;;1.83;1.00;;;3.70;99.90;;;;;;5029395;28;20645;-73
2023/11/26 06:37:38;;;;;;;0.83;0.83;;;3.60;99.90;;;;;;5047667;28;20214;-74
2023/11/26 06:40:05;;;;;;;0.90;0.90;;;3.60;99.90;;;;;;5060670;28;20216;-74
2023/11/26 06:42:32;;;;;;;2.23;0.90;;;3.60;99.90;;;;;;5021245;28;20496;-74
2023/11/26 06:44:57;;;;;;;1.43;1.23;;;3.70;99.90;;;;;;5056325;28;20435;-74
2023/11/26 06:47:28;;;;;;;0.90;0.80;;;3.80;99.90;;;;;;5039151;28;20464;-74
2023/11/26 06:49:53;;;;;;;2.67;1.10;;;3.90;99.90;;;;;;5061924;28;20212;-73
2023/11/26 06:52:19;;;;;;;1.23;1.13;;;4.00;99.90;;;;;;5061106;28;20592;-74
2023/11/26 06:54:45;;;;;;;1.03;0.93;;;4.10;99.90;;;;;;5040712;28;20261;-74
2023/11/26 06:57:11;;;;;;;3.17;0.80;;;4.10;99.90;;;;;;5045837;28;20818;-74
2023/11/26 06:59:36;;;;;;;2.07;1.00;;;4.10;99.90;;;;;;5043869;28;20874;-74
2023/11/26 07:02:03;;;;;;;5.93;1.10;;;4.10;99.90;;;;;;5032636;28;20242;-74
2023/11/26 07:04:29;;;;;;;3.00;0.87;;;4.20;99.90;;;;;;5045490;28;20546;-74
2023/11/26 07:06:55;;;;;;;1.27;0.83;;;4.20;99.90;;;;;;5025302;28;20592;-74
2023/11/26 07:09:20;;;;;;;1.27;1.10;;;4.20;99.90;;;;;;5048779;28;20219;-74
2023/11/26 07:11:48;;;;;;;1.60;0.97;;;4.20;99.90;;;;;;5058492;28;20322;-74
2023/11/26 07:14:13;;;;;;;2.50;1.70;;;4.20;99.90;;;;;;5062120;28;20509;-74
2023/11/26 07:16:39;;;;;;;1.63;1.47;;;4.20;99.90;;;;;;5039752;28;20834;-75
2023/11/26 07:19:05;;;;;;;6.10;1.70;;;4.20;99.90;;;;;;5041827;28;20220;-74
2023/11/26 07:21:30;;;;;;;1.87;1.67;;;4.20;99.90;;;;;;5055215;28;20262;-74
2023/11/26 07:23:56;;;;;;;2.67;1.40;;;4.20;99.90;;;;;;5044404;28;20252;-74
2023/11/26 07:26:25;;;;;;;1.37;1.17;;;4.20;99.90;;;;;;5042650;28;20495;-74
2023/11/26 07:28:51;;;;;;;2.40;2.00;;;4.20;99.90;;;;;;5060457;28;20290;-74
2023/11/26 07:31:19;;;;;;;3.10;2.30;;;4.20;99.90;;;;;;5061462;28;20565;-74
2023/11/26 07:33:45;;;;;;;3.57;2.43;;;4.20;99.90;;;;;;5031191;28;20216;-75
2023/11/26 07:36:14;;;;;;;3.77;3.10;;;4.20;99.90;;;;;;5040562;28;20533;-74
2023/11/26 07:38:40;;;;;;;6.70;4.57;;;4.20;99.90;;;;;;5049802;28;20918;-75
2023/11/26 07:41:08;;;;;;;5.10;3.63;;;4.20;99.90;;;;;;5042864;28;20454;-73
2023/11/26 07:43:37;;;;;;;9.87;5.63;;;4.20;99.90;;;;;;5064704;28;20458;-74
2023/11/26 07:46:04;;;;;;;9.00;6.53;;;4.20;99.90;;;;;;5045541;28;20473;-74
2023/11/26 07:48:29;;;;;;;6.73;5.03;;;4.20;99.90;;;;;;5047079;28;20520;-75
2023/11/26 07:51:02;;;;;;;6.00;4.27;;;4.10;99.90;;;;;;5020594;28;20471;-75
2023/11/26 07:53:30;;;;;;;5.77;3.77;;;4.20;99.90;;;;;;5015470;28;20208;-74
2023/11/26 07:55:56;;;;;;;6.00;3.20;;;4.20;99.90;;;;;;5042208;28;20454;-74
2023/11/26 07:58:24;;;;;;;6.33;3.73;;;4.20;99.90;;;;;;5019858;28;20482;-74
2023/11/26 08:00:50;;;;;;;3.80;3.40;;;4.20;99.90;;;;;;5032588;28;20527;-74
2023/11/26 08:03:16;;;;;;;4.87;2.20;;;4.20;99.90;;;;;;5024235;28;20467;-74
2023/11/26 08:05:43;;;;;;;2.73;2.50;;;4.00;99.90;;;;;;5035481;28;20485;-74
2023/11/26 08:08:09;;;;;;;3.40;2.13;;;4.00;99.90;;;;;;5042983;28;20984;-74
2023/11/26 08:10:35;;;;;;;3.90;2.60;;;4.10;99.90;;;;;;5021979;28;20501;-74
2023/11/26 08:13:00;;;;;;;2.13;1.93;;;4.10;99.90;;;;;;5015980;28;20483;-74
2023/11/26 08:15:27;;;;;;;8.50;3.00;;;4.20;99.90;;;;;;5041099;28;20248;-74
2023/11/26 08:17:55;;;;;;;4.53;2.53;;;4.10;99.90;;;;;;5012521;28;20217;-74
2023/11/26 08:20:24;;;;;;;3.30;2.20;;;4.10;99.90;;;;;;5036868;28;20484;-74
2023/11/26 08:22:51;;;;;;;5.20;2.60;;;4.20;99.90;;;;;;5037897;28;20470;-74
2023/11/26 08:25:23;;;;;;;6.40;2.40;;;4.10;99.90;;;;;;5047847;28;20588;-74
2023/11/26 08:27:51;;;;;;;3.40;2.50;;;4.10;99.90;;;;;;5040342;28;20473;-74
2023/11/26 08:30:32;;;;;;;3.13;2.83;;;4.10;99.90;;;;;;5045685;28;20585;-74
2023/11/26 08:33:05;;;;;;;4.60;3.27;;;4.10;99.90;;;;;;5030909;28;20442;-73
2023/11/26 08:35:32;;;;;;;6.60;2.57;;;4.00;99.90;;;;;;5077883;28;20456;-75
2023/11/26 08:38:00;;;;;;;4.73;2.53;;;3.90;99.90;;;;;;5045808;28;20449;-74
2023/11/26 08:40:26;;;;;;;9.00;3.87;;;3.90;99.90;;;;;;5034513;28;20455;-74
2023/11/26 08:42:54;;;;;;;8.00;4.13;;;3.90;99.90;;;;;;5040349;28;20519;-74
2023/11/26 08:45:23;;;;;;;5.10;3.10;;;3.90;99.90;;;;;;5051235;28;20210;-73
2023/11/26 08:47:49;;;;;;;4.90;2.60;;;3.90;99.90;;;;;;5068202;28;20860;-74
2023/11/26 08:50:15;;;;;;;2.50;2.30;;;3.90;99.90;;;;;;5046193;28;20530;-74
2023/11/26 08:52:41;;;;;;;2.87;2.57;;;3.90;99.90;;;;;;5071673;28;20533;-74
2023/11/26 08:55:09;;;;;;;4.20;2.60;;;4.00;99.90;;;;;;5071340;28;20223;-74
2023/11/26 08:57:39;;;;;;;9.10;3.30;;;4.00;99.90;;;;;;5074517;28;20477;-75
2023/11/26 09:00:09;;;;;;;4.50;3.60;;;4.00;99.90;;;;;;5027954;28;20600;-74
2023/11/26 09:02:39;;;;;;;4.87;2.60;;;4.00;99.90;;;;;;5050521;28;20470;-75
2023/11/26 09:05:08;;;;;;;3.90;2.60;;;4.00;99.90;;;;;;5069121;28;20465;-74
2023/11/26 09:07:41;;;;;;;9.53;3.10;;;4.10;99.90;;;;;;5038418;28;20471;-74
2023/11/26 09:10:07;;;;;;;4.80;2.47;;;4.10;99.90;;;;;;5060538;28;20457;-74
2023/11/26 09:12:33;;;;;;;3.30;2.67;;;4.20;99.90;;;;;;5048768;28;20450;-74
2023/11/26 09:14:59;;;;;;;2.47;2.27;;;4.10;99.90;;;;;;5044815;28;20431;-74
2023/11/26 09:17:25;;;;;;;3.70;2.70;;;4.20;99.90;;;;;;5039493;28;20451;-74
2023/11/26 09:19:51;;;;;;;9.80;2.40;;;4.20;99.90;;;;;;5046984;28;20486;-74
2023/11/26 09:22:17;;;;;;;4.90;2.63;;;4.30;99.90;;;;;;5016100;28;20443;-74
2023/11/26 09:24:43;;;;;;;6.50;2.57;;;4.30;99.90;;;;;;5049957;28;20960;-73
2023/11/26 09:27:09;;;;;;;4.40;2.80;;;4.40;99.90;;;;;;5036340;28;20212;-74
2023/11/26 09:29:34;;;;;;;4.70;2.30;;;4.40;99.90;;;;;;5040663;28;20291;-74
2023/11/26 09:32:00;;;;;;;6.13;3.20;;;4.40;99.90;;;;;;5031824;28;20462;-74
2023/11/26 09:34:26;;;;;;;6.80;3.00;;;4.40;99.90;;;;;;5052507;28;20216;-74
2023/11/26 09:36:52;;;;;;;2.73;2.47;;;4.50;99.90;;;;;;5076018;28;20251;-74
2023/11/26 09:39:19;;;;;;;7.00;2.67;;;4.60;99.90;;;;;;5045680;28;20307;-74
2023/11/26 09:41:45;;;;;;;4.90;2.43;;;4.50;99.90;;;;;;5052594;28;20465;-75
2023/11/26 09:44:10;;;;;;;4.83;2.00;;;4.50;99.90;;;;;;5077885;28;20458;-73
2023/11/26 09:46:36;;;;;;;5.73;2.10;;;4.60;99.90;;;;;;5058214;28;20466;-75
2023/11/26 09:49:03;;;;;;;3.47;2.03;;;4.60;99.90;;;;;;5066204;28;20235;-74
2023/11/26 09:51:31;;;;;;;3.73;2.17;;;4.60;99.90;;;;;;5024460;28;20229;-74
2023/11/26 09:53:57;;;;;;;5.83;2.20;;;4.60;99.90;;;;;;5044196;28;20443;-75
2023/11/26 09:56:24;;;;;;;3.87;2.30;;;4.60;99.90;;;;;;5041190;28;21045;-74
2023/11/26 09:58:49;;;;;;;2.80;1.63;;;4.60;99.90;;;;;;5049985;28;20462;-74
2023/11/26 10:01:15;;;;;;;4.80;2.00;;;4.60;99.90;;;;;;5043029;28;20477;-75
2023/11/26 10:04:01;;;;;;;2.33;1.50;;;4.60;99.90;;;;;;5048609;28;20259;-74
2023/11/26 10:06:28;;;;;;;3.30;2.27;;;4.70;99.90;;;;;;5069237;28;20215;-74
2023/11/26 10:08:54;;;;;;;5.67;4.40;;;4.70;99.90;;;;;;5065472;28;20501;-74
2023/11/26 10:11:24;;;;;;;14.73;11.43;;;4.70;99.90;;;;;;5031386;28;20468;-74
2023/11/26 10:13:51;;;;;;;14.40;9.23;;;4.70;99.90;;;;;;5047063;28;20472;-74
2023/11/26 10:16:32;;;;;;;7.63;6.40;;;4.70;99.90;;;;;;5070624;28;20458;-75
2023/11/26 10:19:00;;;;;;;4.77;3.30;;;4.80;99.90;;;;;;5035864;28;20446;-74
2023/11/26 10:21:28;;;;;;;5.20;3.70;;;4.80;99.90;;;;;;5068631;28;20481;-75
2023/11/26 10:23:54;;;;;;;9.73;3.60;;;4.80;99.90;;;;;;5031346;28;20489;-75
2023/11/26 10:26:22;;;;;;;8.00;3.73;;;4.80;99.90;;;;;;5032963;28;20470;-75
2023/11/26 10:29:09;;;;;;;4.43;3.73;;;4.90;99.90;;;;;;5050387;28;20262;-75
2023/11/26 10:31:36;;;;;;;4.77;4.30;;;4.90;99.90;;;;;;5039224;28;20997;-75
2023/11/26 10:34:14;;;;;;;11.87;6.87;;;5.00;99.90;;;;;;5055305;28;20458;-75
2023/11/26 10:36:41;;;;;;;16.57;10.70;;;5.00;99.90;;;;;;5057136;28;20469;-75
2023/11/26 10:39:09;;;;;;;18.60;13.20;;;5.00;99.90;;;;;;5070522;28;20462;-74
2023/11/26 10:41:36;;;;;;;14.30;10.93;;;5.00;99.90;;;;;;5062840;28;20490;-74
2023/11/26 10:44:04;;;;;;;21.37;14.57;;;5.10;99.90;;;;;;5063157;28;20541;-74
2023/11/26 10:46:33;;;;;;;19.90;14.70;;;5.10;99.90;;;;;;5063349;28;20464;-75
2023/11/26 10:49:29;;;;;;;18.30;13.87;;;5.10;99.90;;;;;;5038729;28;20470;-75
2023/11/26 10:52:06;;;;;;;21.77;12.37;;;5.10;99.90;;;;;;5024590;28;20478;-74
2023/11/26 10:54:48;;;;;;;19.33;12.17;;;5.20;99.90;;;;;;5021018;28;20447;-74
2023/11/26 10:57:24;;;;;;;15.50;10.87;;;5.20;99.90;;;;;;5042153;28;20454;-75
2023/11/26 10:59:54;;;;;;;15.63;10.90;;;5.20;99.90;;;;;;5043725;28;20548;-74
2023/11/26 11:02:20;;;;;;;16.23;12.27;;;5.20;99.90;;;;;;5047548;28;20458;-74
2023/11/26 11:04:47;;;;;;;19.07;13.60;;;5.20;99.90;;;;;;5066917;28;20469;-74
2023/11/26 11:07:14;;;;;;;12.43;10.03;;;5.30;99.90;;;;;;5023829;28;20448;-74
2023/11/26 11:10:03;;;;;;;18.17;12.30;;;5.30;99.90;;;;;;5042592;28;20608;-75
2023/11/26 11:12:45;;;;;;;23.47;16.00;;;5.40;99.90;;;;;;5016774;28;20471;-75
2023/11/26 11:15:11;;;;;;;12.37;9.70;;;5.40;99.90;;;;;;5056372;28;20509;-75
2023/11/26 11:17:36;;;;;;;9.67;5.60;;;5.40;99.90;;;;;;5041092;28;20458;-74
2023/11/26 11:20:04;;;;;;;5.70;3.63;;;5.40;99.90;;;;;;5048400;28;20232;-74
2023/11/26 11:22:41;;;;;;;8.30;4.80;;;5.40;99.90;;;;;;5025760;28;20232;-75
2023/11/26 11:25:15;;;;;;;10.20;4.83;;;5.40;99.90;;;;;;5060646;28;20466;-74
2023/11/26 11:27:54;;;;;;;5.30;4.70;;;5.40;99.90;;;;;;5043015;28;20465;-75
2023/11/26 11:30:32;;;;;;;7.83;4.87;;;5.40;99.90;;;;;;5032505;28;20492;-74
2023/11/26 11:33:10;;;;;;;6.27;4.50;;;5.40;99.90;;;;;;5043608;28;20514;-74
2023/11/26 11:35:45;;;;;;;7.27;4.90;;;5.40;99.90;;;;;;5069554;28;20507;-75
2023/11/26 11:38:12;;;;;;;16.17;5.27;;;5.40;99.90;;;;;;5070216;28;20491;-74
2023/11/26 11:41:07;;;;;;;8.00;4.67;;;5.50;99.90;;;;;;5054753;28;20450;-74
2023/11/26 11:43:34;;;;;;;7.93;5.17;;;5.50;99.90;;;;;;5030817;28;20455;-74
2023/11/26 11:46:28;;;;;;;6.40;4.70;;;5.50;99.90;;;;;;5050304;28;20444;-74
2023/11/26 11:48:55;;;;;;;9.97;4.77;;;5.50;99.90;;;;;;5071133;28;20446;-74
2023/11/26 11:51:38;;;;;;;5.40;4.80;;;5.50;99.90;;;;;;5053201;28;20469;-74
2023/11/26 11:54:09;;;;;;;9.00;5.43;;;5.50;99.90;;;;;;5044945;28;20882;-75
2023/11/26 11:56:43;;;;;;;10.70;5.33;;;5.60;99.90;;;;;;5050324;28;20466;-74
2023/11/26 11:59:09;;;;;;;12.83;5.53;;;5.60;99.90;;;;;;5029000;28;20454;-74
2023/11/26 12:01:36;;;;;;;8.93;4.73;;;5.60;99.90;;;;;;5054561;28;20456;-74
2023/11/26 12:04:02;;;;;;;8.13;4.97;;;5.60;99.90;;;;;;5069824;28;20540;-75
2023/11/26 12:06:29;;;;;;;15.47;5.17;;;5.60;99.90;;;;;;5035230;28;20474;-74
2023/11/26 12:08:55;;;;;;;8.57;4.77;;;5.60;99.90;;;;;;5041291;28;20821;-74
2023/11/26 12:11:21;;;;;;;9.20;4.43;;;5.60;99.90;;;;;;5047322;28;20474;-75
2023/11/26 12:13:47;;;;;;;5.40;3.63;;;5.60;99.90;;;;;;5050337;28;20467;-75
2023/11/26 12:16:13;;;;;;;7.33;4.73;;;5.70;99.90;;;;;;5037105;28;20295;-75
2023/11/26 12:18:39;;;;;;;6.97;3.30;;;5.70;99.90;;;;;;5051908;28;20212;-74
2023/11/26 12:21:05;;;;;;;14.37;4.73;;;5.70;99.90;;;;;;5046541;28;21045;-75
2023/11/26 12:23:35;;;;;;;7.30;3.77;;;5.70;99.90;;;;;;5042817;28;20307;-74
2023/11/26 12:26:02;;;;;;;5.73;3.27;;;5.80;99.90;;;;;;5037023;28;20979;-75
2023/11/26 12:28:29;;;;;;;5.10;4.17;;;5.80;99.90;;;;;;5057676;28;20556;-73
2023/11/26 12:30:56;;;;;;;6.50;4.13;;;5.90;99.90;;;;;;5049751;28;20467;-74
2023/11/26 12:33:25;;;;;;;8.40;4.70;;;5.90;99.90;;;;;;5024684;28;20453;-74
2023/11/26 12:35:51;;;;;;;11.13;4.63;;;5.90;99.90;;;;;;5027235;28;20505;-74
2023/11/26 12:38:24;;;;;;;14.30;5.70;;;5.90;99.90;;;;;;5025809;28;20978;-73
2023/11/26 12:40:51;;;;;;;8.60;5.27;;;5.90;99.90;;;;;;5033303;28;20548;-74
2023/11/26 12:43:18;;;;;;;9.10;4.10;;;6.00;99.90;;;;;;5045312;28;20486;-73
2023/11/26 12:45:44;;;;;;;7.73;4.33;;;6.00;99.90;;;;;;5048385;28;20497;-75
2023/11/26 12:48:10;;;;;;;10.20;4.60;;;6.00;99.90;;;;;;5047872;28;20494;-74
2023/11/26 12:50:44;;;;;;;9.33;4.47;;;6.00;99.90;;;;;;5044163;28;20474;-75
2023/11/26 12:53:11;;;;;;;6.67;4.30;;;6.00;99.90;;;;;;5048898;28;20224;-75
2023/11/26 12:55:46;;;;;;;6.97;3.83;;;6.10;99.90;;;;;;5047703;28;20455;-74
2023/11/26 12:58:27;;;;;;;5.27;2.97;;;6.10;99.90;;;;;;5066912;28;20465;-74
2023/11/26 13:00:56;;;;;;;4.57;3.50;;;6.10;99.90;;;;;;5018264;28;20521;-75
2023/11/26 13:03:23;;;;;;;5.43;3.77;;;6.10;99.90;;;;;;5039796;28;20465;-75